Latest Coastal Weather Observations for Robe Airport

IDV60701

Issued at 10:03 am EST Wednesday 20 June 2018 (issued every 10 minutes, with the page automatically refreshed every 10 minutes)

About coastal observations | Map of coastal stations | Coastal observations for VIC | Marine services | Other Formats
Station Details ID: 026105 Name: ROBE AIRFIELD Lat: -37.18 Lon: 139.81 Height: 3.0 m
Data from the previous 72 hours. | See also: Recent months at Robe Airport
Date/Time
EST
Temp
°C
Wind Pressure Rain since
9am
mm
Weather Cloud Vis
km
Sea
Height
m
Swell
Dir  Spd
kts
Gust
kts
hPa Trend Height
m
Period
s
Dir
20/10:00am 7.4 NNE 7 9 1025.6 - 0.0 - - - - - - -
20/09:30am 6.7 N 6 10 1025.4 - 0.0 - - - - - - -
20/09:00am 6.2 NNE 8 11 1025.3 - 0.0 - - - - - - -
20/08:30am 5.7 NNE 9 12 1024.9 - 0.0 - - - - - - -
20/08:00am 6.0 NNE 8 11 1024.6 - 0.0 - - - - - - -
20/07:30am 6.2 NNE 6 10 1024.4 - 0.0 - - - - - - -
20/07:00am 6.6 NNE 8 11 1024.0 - 0.0 - - - - - - -
20/06:30am 6.7 NNE 8 11 1023.8 - 0.0 - - - - - - -
20/06:00am 6.8 NNE 9 11 1023.5 - 0.0 - - - - - - -
20/05:30am 6.8 NNE 8 10 1023.6 - 0.0 - - - - - - -
20/05:00am 6.7 NNE 9 11 1023.6 - 0.0 - - - - - - -
20/04:30am 6.6 NNE 10 12 1023.5 - 0.0 - - - - - - -
20/04:00am 6.7 NNE 9 13 1023.9 - 0.0 - - - - - - -
20/03:30am 6.7 NNE 8 13 1023.9 - 0.0 - - - - - - -
20/03:00am 6.3 NNE 8 10 1023.8 - 0.0 - - - - - - -
20/02:30am 6.4 NNE 9 11 1023.9 - 0.0 - - - - - - -
20/02:00am 6.8 NNE 9 13 1023.9 - 0.0 - - - - - - -
20/01:30am 6.7 NNE 9 12 1023.8 - 0.0 - - - - - - -
20/01:00am 6.7 NNE 9 11 1024.1 - 0.0 - - - - - - -
20/12:30am 6.6 NNE 7 10 1024.4 - 0.0 - - - - - - -
20/12:00am 6.8 NNE 8 10 1024.3 - 0.0 - - - - - - -
 
Date/Time
EST
Temp
°C
Wind Pressure Rain since
9am
mm
Weather Cloud Vis
km
Sea
Height
m
Swell
Dir  Spd
kts
Gust
kts
hPa Trend Height
m
Period
s
Dir
19/11:30pm 7.0 NNE 7 10 1024.3 - 0.0 - - - - - - -
19/11:00pm 7.0 N 8 10 1024.6 - 0.0 - - - - - - -
19/10:30pm 6.9 N 7 9 1024.7 - 0.0 - - - - - - -
19/10:00pm 7.2 N 7 9 1024.8 - 0.0 - - - - - - -
19/09:30pm 7.6 N 8 10 1024.7 - 0.0 - - - - - - -
19/09:00pm 8.0 N 8 11 1024.9 - 0.0 - - - - - - -
19/08:30pm 7.4 NNE 6 7 1024.8 - 0.0 - - - - - - -
19/08:00pm 7.4 NE 6 8 1024.8 - 0.0 - - - - - - -
19/07:30pm 7.5 NNE 6 10 1024.6 - 0.0 - - - - - - -
19/07:00pm 7.5 NNE 6 8 1024.4 - 0.0 - - - - - - -
19/06:30pm 7.8 NNE 5 7 1024.4 - 0.0 - - - - - - -
19/06:00pm 8.9 NNE 6 8 1024.4 - 0.0 - - - - - - -
19/05:30pm 9.3 NNE 7 9 1024.4 - 0.0 - - - - - - -
19/05:00pm 9.7 NNE 8 11 1024.5 - 0.0 - - - - - - -
19/04:30pm 10.0 NNW 9 14 1025.0 - 0.0 - - - - - - -
19/04:00pm 10.3 N 9 12 1024.9 - 0.0 - - - - - - -
19/03:30pm 10.5 N 10 13 1024.7 - 0.0 - - - - - - -
19/03:00pm 10.9 N 11 15 1024.7 - 0.0 - - - - - - -
19/02:30pm 10.8 N 11 15 1025.0 - 0.0 - - - - - - -
19/02:00pm 10.7 N 10 14 1025.2 - 0.0 - - - - - - -
19/01:30pm 10.5 N 8 11 1025.6 - 0.0 - - - - - - -
19/01:00pm 10.5 NNE 10 13 1025.9 - 0.0 - - - - - - -
19/12:30pm 10.4 N 12 17 1026.3 - 0.0 - - - - - - -
19/12:00pm 10.3 N 11 13 1027.1 - 0.0 - - - - - - -
19/11:30am 10.0 NNE 9 13 1027.3 - 0.0 - - - - - - -
19/11:00am 8.7 NNE 6 9 1027.4 - 0.0 - - - - - - -
19/10:30am 7.4 NNE 6 7 1027.7 - 0.0 - - - - - - -
19/10:00am 6.5 NNE 7 9 1027.5 - 0.0 - - - - - - -
19/09:30am 4.8 NNE 5 6 1027.9 - 0.0 - - - - - - -
19/09:00am 3.8 NNE 5 6 1027.9 - 0.0 - - - - - - -
19/08:30am 3.3 ENE 6 7 1027.4 - 0.0 - - - - - - -
19/08:00am 2.1 N 4 5 1027.8 - 0.0 - - - - - - -
19/07:30am 1.8 N 2 2 1027.8 - 0.0 - - - - - - -
19/07:00am 1.1 CALM 0 0 1027.7 - 0.0 - - - - - - -
19/06:30am 1.0 CALM 0 0 1028.0 - 0.0 - - - - - - -
19/06:00am 2.1 CALM 0 0 1027.9 - 0.0 - - - - - - -
19/05:30am 1.8 CALM 0 0 1027.3 - 0.0 - - - - - - -
19/05:00am 1.4 CALM 0 0 1027.6 - 0.0 - - - - - - -
19/04:30am 1.8 CALM 0 0 1027.8 - 0.0 - - - - - - -
19/04:00am 2.5 N 1 2 1027.9 - 0.0 - - - - - - -
19/03:30am 2.2 N 2 3 1028.4 - 0.0 - - - - - - -
19/03:00am 2.8 NNW 2 3 1028.7 - 0.0 - - - - - - -
19/02:30am 3.8 N 3 3 1028.8 - 0.0 - - - - - - -
19/02:00am 5.8 NNE 2 3 1028.2 - 0.0 - - - - - - -
19/01:30am 5.8 NNE 4 5 1027.9 - 0.0 - - - - - - -
19/01:00am 8.4 ENE 5 6 1028.5 - 0.0 - - - - - - -
19/12:30am 9.2 NNE 4 7 1029.5 - 0.0 - - - - - - -
19/12:00am 9.0 N 3 5 1029.8 - 0.0 - - - - - - -
 
Date/Time
EST
Temp
°C
Wind Pressure Rain since
9am
mm
Weather Cloud Vis
km
Sea
Height
m
Swell
Dir  Spd
kts
Gust
kts
hPa Trend Height
m
Period
s
Dir
18/11:30pm 9.3 N 3 5 1030.1 - 0.0 - - - - - - -
18/11:00pm 9.1 E 4 5 1029.2 - 0.0 - - - - - - -
18/10:30pm 9.2 E 5 7 1028.5 - 0.0 - - - - - - -
18/10:00pm 9.4 ENE 4 8 1029.1 - 0.0 - - - - - - -
18/09:30pm 9.3 E 3 5 1029.3 - 0.0 - - - - - - -
18/09:00pm 9.4 E 4 6 1029.5 - 0.0 - - - - - - -
18/08:30pm 9.5 E 5 9 1029.6 - 0.0 - - - - - - -
18/08:00pm 9.6 ESE 6 9 1029.5 - 0.0 - - - - - - -
18/07:30pm 9.8 ESE 4 5 1029.6 - 0.0 - - - - - - -
18/07:00pm 10.0 ESE 2 3 1029.6 - 0.0 - - - - - - -
18/06:30pm 10.5 CALM 0 3 1029.7 - 0.0 - - - - - - -
18/06:00pm 10.5 SE 4 8 1029.3 - 0.0 - - - - - - -
18/05:30pm 10.6 ESE 4 7 1029.0 - 0.0 - - - - - - -
18/05:00pm 11.2 SE 4 6 1029.1 - 0.0 - - - - - - -
18/04:30pm 11.4 SE 3 5 1029.3 - 0.0 - - - - - - -
18/04:00pm 11.6 SE 4 6 1029.3 - 0.0 - - - - - - -
18/03:30pm 11.8 SSE 5 7 1029.0 - 0.0 - - - - - - -
18/03:00pm 11.9 SE 4 6 1029.1 - 0.0 - - - - - - -
18/02:30pm 12.2 SE 2 3 1029.4 - 0.0 - - - - - - -
18/02:00pm 12.0 SE 2 3 1029.7 - 0.0 - - - - - - -
18/01:30pm 11.8 SE 3 5 1029.7 - 0.0 - - - - - - -
18/01:00pm 12.1 ESE 3 5 1029.8 - 0.0 - - - - - - -
18/12:30pm 11.9 CALM 0 0 1030.3 - 0.0 - - - - - - -
18/12:00pm 11.6 E 3 3 1030.5 - 0.0 - - - - - - -
18/11:30am 11.8 CALM 0 3 1030.7 - 0.0 - - - - - - -
18/11:00am 10.1 E 2 3 1030.9 - 0.0 - - - - - - -
18/10:30am 9.8 E 4 6 1030.8 - 0.0 - - - - - - -
18/10:00am 9.2 CALM 0 0 1030.4 - 0.0 - - - - - - -
18/09:30am 8.7 CALM 0 0 1030.3 - 1.6 - - - - - - -
18/09:00am 8.2 CALM 0 0 1030.3 - 1.6 - - - - - - -
18/08:30am 7.8 CALM 0 0 1030.1 - 1.6 - - - - - - -
18/08:00am 7.3 E 1 3 1029.9 - 1.6 - - - - - - -
18/07:30am 7.0 E 2 3 1029.6 - 1.6 - - - - - - -
18/07:00am 7.1 ESE 3 5 1029.4 - 1.6 - - - - - - -
18/06:30am 6.9 CALM 0 2 1029.0 - 1.6 Recent precip. - - - - - -
18/06:00am 5.8 CALM 0 0 1029.2 - 1.4 - - - - - - -
18/05:30am 5.7 CALM 0 0 1029.0 - 1.4 - - - - - - -
18/05:00am 5.9 CALM 0 0 1029.0 - 1.4 - - - - - - -
18/04:30am 7.3 ESE 1 2 1029.0 - 1.4 - - - - - - -
18/04:00am 7.7 S 2 7 1029.0 - 1.2 - - - - - - -
18/03:30am 7.9 S 1 4 1028.9 - 1.2 - - - - - - -
18/03:00am 8.3 S 5 7 1028.6 - 1.2 - - - - - - -
18/02:30am 8.0 S 2 3 1028.5 - 1.2 - - - - - - -
18/02:00am 8.9 SSW 7 10 1028.5 - 1.2 - - - - - - -
18/01:30am 9.1 SSE 9 13 1028.4 - 1.2 - - - - - - -
18/01:00am 8.0 SE 2 4 1028.5 - 1.2 - - - - - - -
18/12:30am 8.8 SE 4 7 1028.5 - 1.2 Rain - - - - - -
18/12:00am 8.9 S 6 9 1028.7 - 1.0 - - - - - - -
 
Date/Time
EST
Temp
°C
Wind Pressure Rain since
9am
mm
Weather Cloud Vis
km
Sea
Height
m
Swell
Dir  Spd
kts
Gust
kts
hPa Trend Height
m
Period
s
Dir
17/11:30pm 9.0 S 7 10 1028.7 - 1.0 - - - - - - -
17/11:00pm 9.9 S 15 24 1028.7 - 1.0 - - - - - - -
17/10:55pm 10.4 S 12 24 1028.7 - 1.0 - - - - - - -
17/10:30pm 9.7 SSE 6 9 1028.5 - 1.0 - - - - - - -
17/10:00pm 9.9 S 15 21 1028.5 - 1.0 - - - - - - -
17/09:30pm 9.8 SSW 13 19 1028.5 - 1.0 - - - - - - -
17/09:00pm 9.6 S 11 18 1028.3 - 1.0 - - - - - - -
17/08:30pm 9.9 SSE 17 25 1028.3 - 1.0 - - - - - - -
17/08:00pm 9.9 SSE 9 16 1028.0 - 1.0 - - - - - - -
17/07:30pm 10.1 S 12 16 1027.5 - 1.0 - - - - - - -
17/07:02pm 9.7 S 17 28 1027.5 - 1.0 - - - - - - -
17/07:00pm 9.7 S 20 29 1027.6 - 1.0 - - - - - - -
17/06:49pm 11.3 S 15 28 1027.1 - 1.0 - - - - - - -
17/06:30pm 10.4 SSE 13 20 1026.9 - 1.0 - - - - - - -
17/06:00pm 11.2 SSW 15 20 1026.5 - 1.0 - - - - - - -
17/05:30pm 11.1 S 12 19 1026.3 - 1.0 - - - - - - -
17/05:00pm 10.8 S 10 15 1026.0 - 1.0 - - - - - - -
17/04:35pm 11.5 S 15 26 1025.7 - 1.0 - - - - - - -
17/04:30pm 11.5 S 13 20 1025.7 - 1.0 - - - - - - -
17/04:15pm 11.5 S 15 26 1025.6 - 1.0 - - - - - - -
17/04:00pm 11.3 S 13 19 1025.6 - 1.0 - - - - - - -
17/03:30pm 11.5 S 15 24 1025.4 - 1.0 - - - - - - -
17/03:00pm 11.8 S 16 24 1025.1 - 1.0 - - - - - - -
17/02:30pm 11.6 SSW 16 23 1024.9 - 1.0 - - - - - - -
17/02:00pm 12.0 S 17 23 1024.7 - 1.0 - - - - - - -
17/01:30pm 12.6 SSW 18 27 1024.7 - 1.0 - - - - - - -
17/01:00pm 11.2 S 21 27 1025.1 - 1.0 - - - - - - -
17/12:32pm 10.0 SSW 15 26 1025.5 - 0.8 - - - - - - -
17/12:30pm 10.0 SSW 16 26 1025.5 - 0.8 Rain - - - - - -
17/12:06pm 12.6 SSW 18 29 1025.3 - 0.4 - - - - - - -
17/12:00pm 12.0 SSW 20 29 1025.3 - 0.4 - - - - - - -
17/11:35am 11.6 S 15 26 1025.4 - 0.4 - - - - - - -
17/11:30am 11.3 S 10 17 1025.4 - 0.4 - - - - - - -
17/11:00am 10.9 S 16 21 1025.4 - 0.4 - - - - - - -
17/10:40am 9.9 S 15 25 1025.3 - 0.4 - - - - - - -

Other Formats:

Comma delimited format used in spreadsheet applications
http://www.bom.gov.au/fwo/IDV60701/IDV60701.95816.axf

JavaScript Object Notation format (JSON) in row-major order
http://www.bom.gov.au/fwo/IDV60701/IDV60701.95816.json